Eagle Creek, Indiana
Current Conditions -  °F | °C
As of 12:54 AM on Tuesday 27 Jan 2015 (Local Time) from KIND Reporting Station
Light Snow Light Snow  
Wind Chill: 25°   Ceiling: 1500
Heat Index: 25°   Visibility: 6mi
Dew Point: 23°   Wind: 3mph
Humidity: 92%   Direction: 260°W
Pressure: 29.91"   Gusts: NA
Location:  39.7691°N, 86.1583°W
Report Text: KIND 270554Z 26003KT 6SM -SN BR OVC015 M04/M05 A2991 RMK AO2 SLP137 P0000 60000 T10391050 11033 21039 56003
Loading
Personal Weather Stations






























Interactive Weather Map New forecast layout! Learn more

10-Day Weather Forecast

Advertisements
Track Severe Weather on mobile